Plantsville, CT

7:40 PM EST on January 24, 2017 (GMT -0500)
Morins of Plantsville | | Change Station
Active Advisory: Small Craft Advisory

Elev 214 ft 41.58 °N, 72.91 °W | Updated 14 seconds ago

Rain
Rain
36.1 °F
Feels Like 36 °F
N
0.0
Wind Variable Wind from SE
Gusts 3.1 mph

Today
High -- | Low -- °F
--% Chance of Precip.
Yesterday
High -- | Low -- °F
Precip. -- in
Pressure 29.35 in
Visibility 10.0 miles
Clouds Scattered Clouds 1600 ft
Overcast 2900 ft
Windchill 36 °F
Dew Point 14 °F
Humidity 40%
Rainfall 0.00 in
Snow Depth Not available.
7:10 AM 4:57 PM
Waning Crescent, 9% visible
METAR KMMK 242353Z AUTO 34011G20KT 10SM -RA SCT016 OVC029 03/01 A2934 RMK AO2 SLP938 P0000 60007 T00330006 10033 20028 51021 TSNO
Pressure 29.35 in
Visibility 10.0 miles
Clouds Scattered Clouds 1600 ft
Overcast 2900 ft
Windchill 36 °F
Dew Point 14 °F
Humidity 40%
Rainfall 0.00 in
Snow Depth Not available.
7:10 AM 4:57 PM
Waning Crescent, 9% visible
METAR KMMK 242353Z AUTO 34011G20KT 10SM -RA SCT016 OVC029 03/01 A2934 RMK AO2 SLP938 P0000 60007 T00330006 10033 20028 51021 TSNO

Get Your Daily Forecast Email!

Thanks for signing up!

Be on the lookout for a verification email in your inbox.

You'll start receiving the daily forecast at 8 AM.

×

10-Day Weather Forecast

Almanac

Astronomy

Jan. 24, 2017 Rise Set
Actual Time
Civil Twilight
Nautical Twilight
Astronomical Twilight
Moon
Length of Visible Light
Length of Day
Tomorrow will be .
, % of the Moon is Illuminated

Today's Extremes

State Highs State Lows

Community

WunderPhotos

Upload Photos

1,962,540 photos uploaded!

WunderBlog® & News

Nearby

Air Quality

  Air Quality AQ Index Pollutant
Not available.

Snow Depth

Station Depth Elevation

Earthquake Activity

City Distance Mag. Time & Date
Minimum magnitude displayed is 2.5.

Coastal Water Temperatures

Place Temperature

Stations

Nearby Weather Stations

Station Location Temp. Windchill Dew Point Humidity Wind Precip. Elev Updated Type
                   

Watches & Warnings

Small Craft Advisory
Issued: 3:12 PM EST Jan. 24, 2017 – National Weather Service

... Small Craft Advisory remains in effect until 6 am EST
Wednesday...

* winds... northwest winds 15 to 25 kt with gusts up to 30 kt.

Precautionary/preparedness actions...

A Small Craft Advisory means that sustained wind speeds or
frequent gusts of 25 to 33 kt and/or seas of 5 ft or higher are
expected or occurring... and hazardous to small craft.
Inexperienced mariners... especially those operating smaller
vessels... should avoid navigating in these conditions.